Ashland, Kansas
Current Conditions -  °F | °C
As of 8:52 PM on Saturday 22 Nov 2014 (Local Time) from KDDC Reporting Station
Overcast Overcast  
Wind Chill: 54°   Ceiling: 900
Heat Index: 54°   Visibility: 10mi
Dew Point: 49°   Wind: 30mph
Humidity: 83%   Direction: 190°S
Pressure: 29.61"   Gusts: 40mph
Location:  37.19°N, 99.77°W
Report Text: KDDC 230252Z AUTO 19026G35KT 10SM OVC009 12/09 A2961 RMK AO2 PK WND 18037/0235 CIG 008V013 SLP023 T01220094 55002
Loading
Personal Weather Stations






























Interactive Weather Map New forecast layout! Learn more

10-Day Weather Forecast

Advertisements
Track Severe Weather on mobile